.
WxDataArchive / Data Records for 2006-09-03
2006-09-02 September 2006 2006-09-04

Data Records for Sunday, 03 September 2006

Time	Temp	Chill	HIndex	Humid	Dewpt	 Wind 	HiWind	WindDir	Rain 	Barom 
-----	----	-----	------	-----	-----	------	------	-------	-----	----- 
00:00	55.4	55.4	55.4	91	52.8	0	0	---	0.00	30.079 
00:05	55.3	55.3	55.3	92	53.0	0	0	---	0.00	30.079 
00:10	55.1	55.1	55.1	92	52.8	0	0	---	0.00	30.079 
00:15	55.0	55.0	55.0	92	52.7	0	0	---	0.00	30.078 
00:20	55.0	55.0	55.0	92	52.7	0	0	---	0.00	30.078 
00:25	54.8	54.8	54.8	92	52.5	0	0	---	0.00	30.078 
00:30	54.7	54.7	54.7	92	52.4	0	0	---	0.00	30.072 
00:35	54.5	54.5	54.5	92	52.2	0	0	---	0.00	30.072 
00:40	54.5	54.5	54.5	92	52.2	0	0	---	0.00	30.072 
00:45	54.4	54.4	54.4	93	52.4	0	0	---	0.00	30.072 
00:50	54.4	54.4	54.4	93	52.4	0	0	---	0.00	30.072 
00:55	54.4	54.4	54.4	93	52.4	0	0	---	0.00	30.072 
01:00	54.2	54.2	54.2	93	52.2	0	0	---	0.00	30.068 
01:05	54.2	54.2	54.2	93	52.2	0	0	---	0.00	30.068 
01:10	54.2	54.2	54.2	93	52.2	0	0	---	0.00	30.068 
01:15	54.2	54.2	54.2	94	52.5	0	0	---	0.00	30.067 
01:20	54.2	54.2	54.2	94	52.5	0	0	---	0.00	30.067 
01:25	54.2	54.2	54.2	93	52.2	0	0	---	0.00	30.067 
01:30	54.1	54.1	54.1	93	52.1	0	1	90	0.00	30.069 
01:35	54.1	54.1	54.1	93	52.1	0	0	---	0.00	30.069 
01:40	53.9	53.9	53.9	93	51.9	0	0	---	0.00	30.069 
01:45	53.8	53.8	53.8	93	51.8	0	0	---	0.00	30.068 
01:50	53.6	53.6	53.6	93	51.6	0	0	---	0.00	30.068 
01:55	53.5	53.5	53.5	93	51.5	0	0	---	0.00	30.068 
02:00	53.2	53.2	53.2	93	51.2	0	0	---	0.00	30.070 
02:05	53.1	53.1	53.1	93	51.1	0	0	---	0.00	30.070 
02:10	52.9	52.9	52.9	93	50.9	0	0	---	0.00	30.070 
02:15	52.8	52.8	52.8	93	50.8	0	0	---	0.00	30.071 
02:20	52.6	52.6	52.6	93	50.6	0	0	---	0.00	30.071 
02:25	52.5	52.5	52.5	94	50.8	0	0	---	0.00	30.071 
02:30	52.3	52.3	52.3	94	50.6	0	0	---	0.00	30.071 
02:35	52.2	52.2	52.2	94	50.5	0	0	---	0.00	30.071 
02:40	52.2	52.2	52.2	94	50.5	0	0	---	0.00	30.071 
02:45	52.0	52.0	52.0	94	50.3	0	0	---	0.00	30.074 
02:50	51.9	51.9	51.9	94	50.2	0	0	---	0.00	30.074 
02:55	51.7	51.7	51.7	94	50.0	0	0	---	0.00	30.074 
03:00	51.7	51.7	51.7	94	50.0	0	0	---	0.00	30.073 
03:05	51.7	51.7	51.7	94	50.0	0	0	---	0.00	30.073 
03:10	51.7	51.7	51.7	95	50.3	0	0	---	0.00	30.073 
03:15	51.6	51.6	51.6	95	50.2	0	0	---	0.00	30.079 
03:20	51.6	51.6	51.6	95	50.2	0	0	---	0.00	30.079 
03:25	51.6	51.6	51.6	95	50.2	0	0	---	0.00	30.079 
03:30	51.4	51.4	51.4	95	50.0	0	0	---	0.00	30.078 
03:35	51.4	51.4	51.4	95	50.0	0	0	---	0.00	30.078 
03:40	51.3	51.3	51.3	95	49.9	0	0	---	0.00	30.078 
03:45	51.3	51.3	51.3	95	49.9	0	0	---	0.00	30.077 
03:50	51.3	51.3	51.3	95	49.9	0	0	---	0.00	30.077 
03:55	51.3	51.3	51.3	95	49.9	0	0	---	0.00	30.077 
04:00	51.3	51.3	51.3	95	49.9	0	0	---	0.00	30.075 
04:05	51.3	51.3	51.3	95	49.9	0	0	---	0.00	30.075 
04:10	51.3	51.3	51.3	95	49.9	0	0	---	0.00	30.075 
04:15	51.3	51.3	51.3	96	50.2	0	0	---	0.00	30.075 
04:20	51.3	51.3	51.3	96	50.2	0	0	---	0.00	30.075 
04:25	51.4	51.4	51.4	96	50.3	0	0	---	0.00	30.075 
04:30	51.4	51.4	51.4	96	50.3	0	0	---	0.00	30.080 
04:35	51.4	51.4	51.4	96	50.3	0	0	---	0.00	30.080 
04:40	51.4	51.4	51.4	96	50.3	0	0	---	0.00	30.080 
04:45	51.4	51.4	51.4	96	50.3	0	0	---	0.00	30.080 
04:50	51.4	51.4	51.4	96	50.3	0	0	---	0.00	30.080 
04:55	51.4	51.4	51.4	96	50.3	0	0	---	0.00	30.080 
05:00	51.7	51.7	51.7	96	50.6	0	0	---	0.00	30.082 
05:05	52.0	52.0	52.0	96	50.9	0	0	---	0.00	30.082 
05:10	52.3	52.3	52.3	96	51.2	0	0	---	0.00	30.082 
05:15	52.6	52.6	52.6	96	51.5	0	0	---	0.00	30.082 
05:20	52.8	52.8	52.8	97	52.0	0	0	---	0.00	30.082 
05:25	52.8	52.8	52.8	96	51.7	0	0	---	0.00	30.082 
05:30	52.8	52.8	52.8	96	51.7	0	0	---	0.00	30.079 
05:35	52.6	52.6	52.6	96	51.5	0	0	---	0.00	30.079 
05:40	52.5	52.5	52.5	96	51.4	0	0	---	0.00	30.079 
05:45	52.2	52.2	52.2	96	51.1	0	0	---	0.00	30.081 
05:50	52.0	52.0	52.0	96	50.9	0	0	---	0.00	30.081 
05:55	51.9	51.9	51.9	96	50.8	0	0	---	0.00	30.081 
06:00	51.7	51.7	51.7	96	50.6	0	0	---	0.00	30.081 
06:05	51.7	51.7	51.7	96	50.6	0	0	---	0.00	30.081 
06:10	51.6	51.6	51.6	96	50.5	0	0	---	0.00	30.081 
06:15	51.4	51.4	51.4	96	50.3	0	0	---	0.00	30.090 
06:20	51.3	51.3	51.3	96	50.2	0	0	---	0.00	30.090 
06:25	51.3	51.3	51.3	96	50.2	0	0	---	0.00	30.090 
06:30	51.7	51.7	51.7	96	50.6	0	0	---	0.00	30.090 
06:35	51.9	51.9	51.9	97	51.1	0	0	---	0.00	30.090 
06:40	51.9	51.9	51.9	97	51.1	0	0	---	0.00	30.090 
06:45	51.9	51.9	51.9	97	51.1	0	0	---	0.00	30.091 
06:50	51.9	51.9	51.9	96	50.8	0	0	---	0.00	30.091 
06:55	52.2	52.2	52.2	97	51.4	0	0	---	0.00	30.091 
07:00	52.5	52.5	52.5	97	51.7	0	0	---	0.00	30.093 
07:05	52.8	52.8	52.8	97	52.0	0	1	90	0.00	30.093 
07:10	52.8	52.8	52.8	97	52.0	0	0	---	0.00	30.093 
07:15	52.8	52.8	52.8	97	52.0	0	0	---	0.00	30.094 
07:20	52.6	52.6	52.6	97	51.8	0	0	---	0.00	30.094 
07:25	52.6	52.6	52.6	97	51.8	0	0	---	0.00	30.094 
07:30	52.5	52.5	52.5	97	51.7	0	0	---	0.00	30.104 
07:35	52.5	52.5	52.5	97	51.7	0	0	---	0.00	30.104 
07:40	52.6	52.6	52.6	97	51.8	0	0	---	0.00	30.104 
07:45	52.9	52.9	52.9	97	52.1	0	0	---	0.00	30.113 
07:50	52.9	52.9	52.9	97	52.1	0	0	---	0.00	30.113 
07:55	53.1	53.1	53.1	97	52.3	0	0	---	0.00	30.113 
08:00	53.2	53.2	53.2	97	52.4	0	0	---	0.00	30.120 
08:05	53.2	53.2	53.2	97	52.4	0	1	90	0.00	30.120 
08:10	53.3	53.3	53.3	97	52.5	0	0	---	0.00	30.120 
08:15	53.5	53.5	53.5	97	52.7	0	1	90	0.00	30.123 
08:20	53.6	53.6	53.6	97	52.8	0	0	---	0.00	30.123 
08:25	53.9	53.9	53.9	97	53.1	0	0	---	0.00	30.123 
08:30	53.9	53.9	53.9	97	53.1	0	1	90	0.00	30.125 
08:35	54.2	54.2	54.2	97	53.4	0	0	---	0.00	30.125 
08:40	54.5	54.5	54.5	97	53.7	0	1	90	0.00	30.125 
08:45	54.4	54.4	54.4	97	53.6	0	2	90	0.00	30.133 
08:50	54.2	54.2	54.2	97	53.4	0	1	90	0.00	30.133 
08:55	54.4	54.4	54.4	97	53.6	0	2	90	0.00	30.133 
09:00	54.5	54.5	54.5	97	53.7	0	2	90	0.00	30.138 
09:05	54.7	54.7	54.7	97	53.9	0	1	68	0.00	30.138 
09:10	54.8	54.8	54.8	97	54.0	0	1	68	0.00	30.138 
09:15	54.8	54.8	54.8	97	54.0	0	0	---	0.00	30.140 
09:20	55.0	55.0	55.0	97	54.2	0	0	---	0.00	30.140 
09:25	55.3	55.3	55.3	97	54.5	0	1	68	0.00	30.140 
09:30	55.3	55.3	55.3	97	54.5	0	1	68	0.00	30.144 
09:35	55.9	55.9	55.9	96	54.8	0	1	68	0.00	30.144 
09:40	56.3	56.3	56.3	96	55.2	0	1	68	0.00	30.144 
09:45	56.6	56.6	56.6	95	55.2	1	2	68	0.00	30.140 
09:50	57.2	57.2	57.2	94	55.5	0	2	68	0.00	30.140 
09:55	57.6	57.6	57.6	91	55.0	0	2	338	0.00	30.140 
10:00	58.4	58.4	58.4	89	55.2	0	1	338	0.00	30.140 
10:05	59.2	59.2	59.2	86	55.0	0	2	338	0.00	30.140 
10:10	59.9	59.9	59.9	84	55.0	0	2	338	0.00	30.140 
10:15	60.7	60.7	60.7	81	54.8	0	2	225	0.00	30.142 
10:20	61.2	61.2	61.2	81	55.3	0	2	292	0.00	30.142 
10:25	61.6	61.6	61.6	79	55.0	1	3	292	0.00	30.142 
10:30	62.0	62.0	62.0	77	54.7	0	2	248	0.00	30.136 
10:35	62.7	62.7	62.7	74	54.3	1	3	158	0.00	30.136 
10:40	63.5	63.5	63.5	78	56.5	0	2	158	0.00	30.136 
10:45	63.9	63.9	63.9	74	55.4	0	2	158	0.00	30.133 
10:50	64.3	64.3	64.3	73	55.5	1	3	112	0.00	30.133 
10:55	64.5	64.5	64.5	73	55.6	1	3	112	0.00	30.133 
11:00	64.5	64.5	64.5	70	54.5	0	3	315	0.00	30.136 
11:05	64.5	64.5	64.5	74	56.0	0	2	315	0.00	30.136 
11:10	65.0	65.0	65.0	71	55.4	1	2	0	0.00	30.136 
11:15	65.3	65.3	65.3	69	54.9	1	4	0	0.00	30.135 
11:20	65.8	65.8	65.8	68	54.9	1	3	315	0.00	30.135 
11:25	66.4	66.4	66.4	71	56.7	1	3	22	0.00	30.135 
11:30	66.8	66.8	66.8	67	55.5	1	3	22	0.00	30.133 
11:35	66.4	66.4	66.4	68	55.5	1	3	270	0.00	30.133 
11:40	66.8	66.8	66.8	70	56.7	1	3	135	0.00	30.133 
11:45	66.9	66.9	66.9	67	55.6	1	4	248	0.00	30.134 
11:50	66.6	66.6	66.6	70	56.5	0	2	135	0.00	30.134 
11:55	66.4	66.4	66.4	69	55.9	0	2	135	0.00	30.134 
12:00	66.8	66.8	66.8	73	57.9	1	3	45	0.00	30.133 
12:05	67.4	67.4	67.4	65	55.2	1	2	338	0.00	30.133 
12:10	68.1	68.1	68.1	65	55.9	2	7	45	0.00	30.133 
12:15	68.6	68.6	68.6	67	57.2	1	7	270	0.00	30.133 
12:20	68.9	68.9	68.9	66	57.1	1	3	292	0.00	30.133 
12:25	69.3	69.3	69.3	63	56.2	0	1	68	0.00	30.133 
12:30	68.9	68.9	68.9	62	55.3	1	2	0	0.00	30.131 
12:35	68.4	68.4	68.4	63	55.3	1	2	0	0.00	30.131 
12:40	68.8	68.8	68.8	64	56.1	1	4	45	0.00	30.131 
12:45	69.8	69.8	69.8	63	56.6	1	4	90	0.00	30.126 
12:50	70.3	70.3	70.3	60	55.7	2	4	112	0.00	30.126 
12:55	70.1	70.1	70.1	59	55.1	1	4	112	0.00	30.126 
13:00	70.3	70.3	70.3	60	55.7	2	5	90	0.00	30.119 
13:05	70.6	70.6	70.6	58	55.1	2	5	68	0.00	30.119 
13:10	70.3	70.3	70.3	60	55.7	0	2	68	0.00	30.119 
13:15	70.3	70.3	70.3	58	54.8	2	4	90	0.00	30.118 
13:20	70.3	70.3	70.3	58	54.8	1	4	90	0.00	30.118 
13:25	69.9	69.9	69.9	62	56.3	0	3	90	0.00	30.118 
13:30	69.3	69.3	69.3	62	55.7	1	2	90	0.00	30.117 
13:35	69.6	69.6	69.6	62	56.0	1	3	270	0.00	30.117 
13:40	70.8	70.8	70.8	59	55.7	2	5	90	0.00	30.117 
13:45	71.5	71.5	71.5	54	54.0	2	5	90	0.00	30.112 
13:50	70.9	70.9	70.9	57	54.9	1	3	90	0.00	30.112 
13:55	70.8	70.8	70.8	59	55.7	2	5	112	0.00	30.112 
14:00	70.6	70.6	70.6	59	55.6	1	5	90	0.00	30.107 
14:05	70.4	70.4	70.4	56	53.9	0	2	68	0.00	30.107 
14:10	70.9	70.9	70.9	58	55.4	0	2	90	0.00	30.107 
14:15	71.5	71.5	71.5	57	55.5	1	3	22	0.00	30.102 
14:20	71.3	71.3	71.3	56	54.8	2	5	90	0.00	30.102 
14:25	71.3	71.3	71.3	55	54.3	3	6	90	0.00	30.102 
14:30	71.8	71.8	71.8	56	55.2	2	5	90	0.00	30.101 
14:35	72.1	72.1	72.1	56	55.5	1	3	90	0.00	30.101 
14:40	72.3	72.3	72.3	59	57.2	0	2	90	0.00	30.101 
14:45	72.3	72.3	72.3	59	57.2	0	1	68	0.00	30.105 
14:50	72.7	72.7	72.7	58	57.1	1	4	112	0.00	30.105 
14:55	73.0	73.0	73.0	56	56.4	1	4	112	0.00	30.105 
15:00	72.5	72.5	72.5	53	54.4	1	4	112	0.00	30.108 
15:05	72.0	72.0	72.0	56	55.4	0	3	112	0.00	30.108 
15:10	71.8	71.8	71.8	56	55.2	1	4	112	0.00	30.108 
15:15	71.6	71.6	71.6	56	55.1	0	1	68	0.00	30.107 
15:20	71.6	71.6	71.6	58	56.0	0	1	68	0.00	30.107 
15:25	71.8	71.8	71.8	59	56.7	0	3	68	0.00	30.107 
15:30	71.8	71.8	71.8	53	53.7	1	4	112	0.00	30.103 
15:35	71.6	71.6	71.6	53	53.5	1	4	90	0.00	30.103 
15:40	71.6	71.6	71.6	55	54.6	0	3	90	0.00	30.103 
15:45	71.6	71.6	71.6	56	55.1	0	2	90	0.00	30.100 
15:50	71.8	71.8	71.8	58	56.2	0	1	112	0.00	30.100 
15:55	72.0	72.0	72.0	55	54.9	0	1	112	0.00	30.100 
16:00	72.1	72.1	72.1	54	54.5	0	2	112	0.00	30.100 
16:05	72.0	72.0	72.0	58	56.4	0	2	112	0.00	30.100 
16:10	72.0	72.0	72.0	56	55.4	1	3	112	0.00	30.100 
16:15	72.1	72.1	72.1	53	54.0	0	2	112	0.00	30.093 
16:20	72.5	72.5	72.5	57	56.4	0	2	0	0.00	30.093 
16:25	72.7	72.7	72.7	58	57.1	0	2	0	0.00	30.093 
16:30	72.8	72.8	72.8	52	54.1	0	2	0	0.00	30.091 
16:35	73.0	73.0	73.0	52	54.3	0	2	0	0.00	30.091 
16:40	73.2	73.2	73.2	55	56.0	0	1	0	0.00	30.091 
16:45	73.2	73.2	73.2	55	56.0	0	1	22	0.00	30.088 
16:50	72.8	72.8	72.8	54	55.2	0	1	22	0.00	30.088 
16:55	72.5	72.5	72.5	52	53.9	1	3	22	0.00	30.088 
17:00	72.3	72.3	72.3	51	53.1	0	1	22	0.00	30.085 
17:05	72.5	72.5	72.5	51	53.3	1	3	22	0.00	30.085 
17:10	72.3	72.3	72.3	51	53.1	1	3	90	0.00	30.085 
17:15	72.1	72.1	72.1	50	52.4	1	4	90	0.00	30.083 
17:20	72.1	72.1	72.1	54	54.5	1	3	135	0.00	30.083 
17:25	72.1	72.1	72.1	56	55.5	0	3	90	0.00	30.083 
17:30	72.1	72.1	72.1	54	54.5	0	2	90	0.00	30.082 
17:35	72.1	72.1	72.1	50	52.4	1	4	135	0.00	30.082 
17:40	72.0	72.0	72.0	53	53.9	1	3	68	0.00	30.082 
17:45	71.8	71.8	71.8	54	54.2	0	2	90	0.00	30.077 
17:50	71.8	71.8	71.8	54	54.2	1	3	0	0.00	30.077 
17:55	71.8	71.8	71.8	53	53.7	0	1	292	0.00	30.077 
18:00	72.0	72.0	72.0	54	54.4	0	1	292	0.00	30.075 
18:05	72.0	72.0	72.0	54	54.4	0	2	292	0.00	30.075 
18:10	71.8	71.8	71.8	56	55.2	0	1	292	0.00	30.075 
18:15	71.8	71.8	71.8	55	54.7	0	1	292	0.00	30.078 
18:20	71.6	71.6	71.6	56	55.1	0	1	292	0.00	30.078 
18:25	71.6	71.6	71.6	54	54.1	0	1	292	0.00	30.078 
18:30	71.5	71.5	71.5	58	55.9	0	2	292	0.00	30.082 
18:35	71.3	71.3	71.3	56	54.8	1	2	338	0.00	30.082 
18:40	71.3	71.3	71.3	57	55.3	0	2	338	0.00	30.082 
18:45	71.1	71.1	71.1	57	55.1	0	1	338	0.00	30.077 
18:50	70.9	70.9	70.9	58	55.4	0	2	338	0.00	30.077 
18:55	70.9	70.9	70.9	58	55.4	0	3	0	0.00	30.077 
19:00	70.8	70.8	70.8	58	55.3	1	2	45	0.00	30.072 
19:05	70.6	70.6	70.6	58	55.1	0	1	45	0.00	30.072 
19:10	70.4	70.4	70.4	61	56.3	0	2	45	0.00	30.072 
19:15	70.3	70.3	70.3	59	55.3	0	1	45	0.00	30.073 
19:20	70.1	70.1	70.1	60	55.6	0	0	---	0.00	30.073 
19:25	69.8	69.8	69.8	60	55.3	0	0	---	0.00	30.073 
19:30	69.3	69.3	69.3	62	55.7	0	0	---	0.00	30.074 
19:35	68.9	68.9	68.9	63	55.8	0	0	---	0.00	30.074 
19:40	68.6	68.6	68.6	63	55.5	0	0	---	0.00	30.074 
19:45	68.3	68.3	68.3	63	55.2	0	0	---	0.00	30.075 
19:50	68.1	68.1	68.1	65	55.9	0	0	---	0.00	30.075 
19:55	67.8	67.8	67.8	65	55.6	0	0	---	0.00	30.075 
20:00	67.6	67.6	67.6	66	55.8	0	0	---	0.00	30.075 
20:05	67.3	67.3	67.3	67	56.0	0	0	---	0.00	30.075 
20:10	66.9	66.9	66.9	69	56.4	0	0	---	0.00	30.075 
20:15	66.6	66.6	66.6	69	56.1	0	0	---	0.00	30.072 
20:20	66.3	66.3	66.3	70	56.2	0	0	---	0.00	30.072 
20:25	65.8	65.8	65.8	71	56.1	0	0	---	0.00	30.072 
20:30	65.5	65.5	65.5	73	56.6	0	0	---	0.00	30.080 
20:35	65.2	65.2	65.2	74	56.7	0	0	---	0.00	30.080 
20:40	65.0	65.0	65.0	75	56.9	0	0	---	0.00	30.080 
20:45	64.7	64.7	64.7	76	57.0	0	0	---	0.00	30.085 
20:50	64.2	64.2	64.2	76	56.5	0	0	---	0.00	30.085 
20:55	63.9	63.9	63.9	77	56.5	0	0	---	0.00	30.085 
21:00	63.5	63.5	63.5	78	56.5	0	0	---	0.00	30.089 
21:05	63.4	63.4	63.4	79	56.8	0	0	---	0.00	30.089 
21:10	63.1	63.1	63.1	80	56.8	0	0	---	0.00	30.089 
21:15	62.9	62.9	62.9	80	56.6	0	0	---	0.00	30.088 
21:20	62.6	62.6	62.6	81	56.7	0	0	---	0.00	30.088 
21:25	62.3	62.3	62.3	82	56.7	0	0	---	0.00	30.088 
21:30	62.0	62.0	62.0	83	56.8	0	0	---	0.00	30.089 
21:35	61.8	61.8	61.8	84	56.9	0	0	---	0.00	30.089 
21:40	61.6	61.6	61.6	83	56.4	0	0	---	0.00	30.089 
21:45	61.5	61.5	61.5	83	56.3	0	0	---	0.00	30.095 
21:50	61.2	61.2	61.2	84	56.3	0	0	---	0.00	30.095 
21:55	61.0	61.0	61.0	84	56.1	0	0	---	0.00	30.095 
22:00	60.7	60.7	60.7	84	55.8	0	0	---	0.00	30.100 
22:05	60.5	60.5	60.5	85	56.0	0	0	---	0.00	30.100 
22:10	60.4	60.4	60.4	85	55.9	0	0	---	0.00	30.100 
22:15	60.2	60.2	60.2	85	55.7	0	0	---	0.00	30.098 
22:20	59.9	59.9	59.9	86	55.7	0	0	---	0.00	30.098 
22:25	59.8	59.8	59.8	87	55.9	0	0	---	0.00	30.098 
22:30	59.6	59.6	59.6	87	55.7	0	0	---	0.00	30.098 
22:35	59.6	59.6	59.6	88	56.0	0	0	---	0.00	30.098 
22:40	59.5	59.5	59.5	88	55.9	0	0	---	0.00	30.098 
22:45	59.3	59.3	59.3	89	56.1	0	0	---	0.00	30.098 
22:50	59.2	59.2	59.2	89	56.0	0	0	---	0.00	30.098 
22:55	58.9	58.9	58.9	89	55.7	0	0	---	0.00	30.098 
23:00	58.7	58.7	58.7	89	55.5	0	0	---	0.00	30.098 
23:05	58.6	58.6	58.6	89	55.4	0	0	---	0.00	30.098 
23:10	58.4	58.4	58.4	89	55.2	0	0	---	0.00	30.098 
23:15	58.3	58.3	58.3	89	55.1	0	0	---	0.00	30.099 
23:20	58.1	58.1	58.1	90	55.2	0	0	---	0.00	30.099 
23:25	58.1	58.1	58.1	90	55.2	0	0	---	0.00	30.099 
23:30	58.0	58.0	58.0	91	55.4	0	0	---	0.00	30.099 
23:35	57.8	57.8	57.8	91	55.2	0	0	---	0.00	30.099 
23:40	57.6	57.6	57.6	91	55.0	0	0	---	0.00	30.099 
23:45	57.5	57.5	57.5	92	55.2	0	0	---	0.00	30.098 
23:50	57.5	57.5	57.5	92	55.2	0	0	---	0.00	30.098 
23:55	57.3	57.3	57.3	92	55.0	0	0	---	0.00	30.098 

CoCoRaHS
IN-AL-39
A2 Web Hosting
Creative Commons License
GoDaddy
Look for:

loaded 2017-10-19 19:54:24 • last modified 2010-11-18 10:43:29
Privacy PolicyDisclaimer
• wx.awcolley.com is powered by PmWiki v.2002016 •
• all content (unless otherwise noted) © 2017 A W Colley